KCVX

Charlevoix Municipal Airport

Charlevoix, Michigan, USA
METAR KCVX 252215Z AUTO 27005KT 7SM CLR 15/11 A2979 RMK AO2 T01510113
Observed Flight Rules
May-25 @ 22:15 UTC (14 minutes ago) Visual Flight Rules
Wind Visibility Clouds
270° at 5 knots 7 miles
  • Clear skies
Temperatures Readings
Current 15°C / 59°F
Dewpoint 11°C / 52°F
Humidity 77%
Altimeter 29.79" Hg
Pressure 1009 hPa
Elevation 204
METAR KCVX 252215Z AUTO 27005KT 7SM CLR 15/11 A2979 RMK AO2 T01510113
Observed Flight Rules
May-25 @ 22:15 UTC
(14 minutes ago)
VFR
Wind Visibility
270° at 5 knots 7 miles
Clouds
  • Clear skies
Temperature Dewpoint
15°C / 59°F 11°C / 52°F
Humidity Altimeter Pressure
77% 29.79" Hg 1009 hPa